Time;durP1;ratioP1;P1;durP2;ratioP2;P2;SDS_P1;SDS_P2;PMS_P1;PMS_P2;Temp;Humidity;BMP_temperature;BMP_pressure;BME280_temperature;BME280_humidity;BME280_pressure;Samples;Min_cycle;Max_cycle;Signal;HPM_P1;HPM_P2
2021/12/10 00:00:33;;;;;;;0.15;0.15;;;3.80;99.90;;;;;;4959783;28;20055;-64
2021/12/10 00:03:01;;;;;;;0.10;0.10;;;3.80;99.90;;;;;;4963847;28;20049;-64
2021/12/10 00:05:32;;;;;;;0.28;0.28;;;3.80;99.90;;;;;;4968765;28;20522;-64
2021/12/10 00:07:59;;;;;;;0.00;0.00;;;3.80;99.90;;;;;;4973673;28;20141;-64
2021/12/10 00:10:31;;;;;;;0.00;0.00;;;3.80;99.90;;;;;;4959578;28;20069;-64
2021/12/10 00:12:57;;;;;;;0.70;0.70;;;3.80;99.90;;;;;;4959175;28;20435;-64
2021/12/10 00:15:26;;;;;;;0.43;0.32;;;3.80;99.90;;;;;;4958502;28;20465;-64
2021/12/10 00:17:54;;;;;;;0.00;0.00;;;3.80;99.90;;;;;;4959656;28;20054;-65
2021/12/10 00:20:23;;;;;;;0.00;0.00;;;3.80;99.90;;;;;;4959097;28;20143;-64
2021/12/10 00:22:56;;;;;;;0.08;0.08;;;3.80;99.90;;;;;;4958263;28;20046;-64
2021/12/10 00:25:24;;;;;;;0.52;0.52;;;3.80;99.90;;;;;;4960012;28;20533;-65
2021/12/10 00:27:53;;;;;;;0.00;0.00;;;3.90;99.90;;;;;;4959240;28;20405;-65
2021/12/10 00:30:27;;;;;;;0.03;0.03;;;3.80;99.90;;;;;;4959388;28;20486;-64
2021/12/10 00:33:20;;;;;;;0.00;0.00;;;3.90;99.90;;;;;;4960237;28;20353;-64
2021/12/10 00:35:46;;;;;;;0.35;0.35;;;3.80;99.90;;;;;;4959118;28;20051;-64
2021/12/10 00:38:13;;;;;;;0.20;0.20;;;3.80;99.90;;;;;;4958140;28;20046;-65
2021/12/10 00:40:41;;;;;;;0.00;0.00;;;3.80;99.90;;;;;;4959171;28;20553;-64
2021/12/10 00:43:06;;;;;;;0.80;0.30;;;3.80;99.90;;;;;;4959809;28;20047;-65
2021/12/10 00:45:32;;;;;;;0.40;0.13;;;4.10;99.90;;;;;;4958281;28;20659;-65
2021/12/10 00:47:58;;;;;;;0.10;0.10;;;3.80;99.90;;;;;;4961007;28;20425;-65
2021/12/10 00:50:30;;;;;;;0.03;0.03;;;3.80;99.90;;;;;;4959847;28;20093;-64
2021/12/10 00:52:56;;;;;;;0.00;0.00;;;3.80;99.90;;;;;;4956604;28;20043;-64
2021/12/10 00:55:23;;;;;;;0.63;0.30;;;3.80;99.90;;;;;;4959862;28;20047;-64
2021/12/10 00:57:49;;;;;;;0.20;0.20;;;3.80;99.90;;;;;;4958678;28;20053;-64
2021/12/10 01:00:19;;;;;;;0.00;0.00;;;4.30;99.90;;;;;;4959637;28;20098;-64
2021/12/10 01:02:46;;;;;;;0.10;0.05;;;3.80;99.90;;;;;;4961686;28;20046;-65
2021/12/10 01:05:14;;;;;;;0.00;0.00;;;3.80;99.90;;;;;;4966513;28;20150;-64
2021/12/10 01:07:40;;;;;;;0.32;0.32;;;3.80;99.90;;;;;;4959717;28;20051;-65
2021/12/10 01:10:13;;;;;;;0.00;0.00;;;3.80;99.90;;;;;;4958994;28;20082;-65
2021/12/10 01:12:43;;;;;;;0.10;0.10;;;3.80;99.90;;;;;;4959728;28;20129;-64
2021/12/10 01:23:48;;;;;;;0.20;0.20;;;4.70;99.90;;;;;;4958286;28;20054;-64
2021/12/10 01:28:46;;;;;;;0.00;0.00;;;3.90;99.90;;;;;;4959213;28;20047;-65
2021/12/10 01:31:13;;;;;;;3.97;0.90;;;3.90;99.90;;;;;;4957944;28;20077;-64
2021/12/10 01:33:40;;;;;;;0.57;0.57;;;3.90;99.90;;;;;;4957741;28;20049;-64
2021/12/10 01:36:07;;;;;;;0.30;0.30;;;3.90;99.90;;;;;;4974603;28;20081;-65
2021/12/10 01:38:39;;;;;;;0.75;0.30;;;4.80;99.90;;;;;;4958884;28;20046;-65
2021/12/10 01:41:09;;;;;;;0.00;0.00;;;3.90;99.90;;;;;;4959092;28;20126;-65
2021/12/10 01:43:39;;;;;;;0.30;0.25;;;3.90;99.90;;;;;;4958906;28;20050;-65
2021/12/10 01:46:11;;;;;;;0.22;0.22;;;3.90;99.90;;;;;;4958691;28;20051;-65
2021/12/10 01:48:42;;;;;;;0.03;0.03;;;3.90;99.90;;;;;;4959329;28;20085;-64
2021/12/10 01:51:10;;;;;;;0.00;0.00;;;4.20;99.90;;;;;;4963029;28;20046;-64
2021/12/10 01:53:38;;;;;;;0.65;0.60;;;3.90;99.90;;;;;;4962626;28;20490;-65
2021/12/10 01:56:15;;;;;;;0.00;0.00;;;3.90;99.90;;;;;;4963511;28;20058;-65
2021/12/10 01:58:41;;;;;;;0.00;0.00;;;3.90;99.90;;;;;;4945805;28;20189;-65
2021/12/10 02:01:15;;;;;;;0.65;0.52;;;3.90;99.90;;;;;;4961925;28;20055;-65
2021/12/10 02:03:43;;;;;;;0.00;0.00;;;3.90;99.90;;;;;;4970861;23;20051;-65
2021/12/10 02:06:09;;;;;;;0.00;0.00;;;3.90;99.90;;;;;;4967644;28;20055;-64
2021/12/10 02:08:36;;;;;;;0.20;0.20;;;4.00;99.90;;;;;;4961507;28;20693;-64
2021/12/10 02:11:04;;;;;;;0.00;0.00;;;3.90;99.90;;;;;;4963474;28;20055;-64
2021/12/10 02:13:29;;;;;;;0.05;0.05;;;3.90;99.90;;;;;;4945524;28;20050;-64
2021/12/10 02:15:55;;;;;;;0.03;0.03;;;3.90;99.90;;;;;;4945374;28;20070;-64
2021/12/10 02:18:21;;;;;;;0.00;0.00;;;3.90;99.90;;;;;;4963087;28;20057;-63
2021/12/10 02:21:14;;;;;;;0.25;0.25;;;3.90;99.90;;;;;;4945875;28;20583;-64
2021/12/10 02:23:43;;;;;;;0.20;0.20;;;3.90;99.90;;;;;;4945824;28;20050;-63
2021/12/10 02:26:13;;;;;;;1.55;1.00;;;3.90;99.90;;;;;;4962936;28;20490;-63
2021/12/10 02:28:41;;;;;;;0.10;0.10;;;3.90;99.90;;;;;;4962638;28;20405;-63
2021/12/10 02:31:08;;;;;;;0.00;0.00;;;3.90;99.90;;;;;;4945486;28;20421;-64
2021/12/10 02:33:35;;;;;;;0.00;0.00;;;3.90;99.90;;;;;;4962589;28;20058;-64
2021/12/10 02:36:00;;;;;;;0.08;0.08;;;4.40;99.90;;;;;;4962163;28;20054;-63
2021/12/10 02:38:26;;;;;;;0.00;0.00;;;3.90;99.90;;;;;;4962017;28;20054;-63
2021/12/10 02:40:54;;;;;;;0.43;0.43;;;4.40;99.90;;;;;;4962248;28;20173;-63
2021/12/10 02:43:22;;;;;;;0.05;0.03;;;4.00;99.90;;;;;;4962470;28;20133;-63
2021/12/10 02:45:52;;;;;;;0.00;0.00;;;3.90;99.90;;;;;;4961856;28;20046;-63
2021/12/10 02:48:18;;;;;;;0.00;0.00;;;3.90;99.90;;;;;;4962624;28;20100;-63
2021/12/10 02:50:44;;;;;;;0.00;0.00;;;4.00;99.90;;;;;;4944616;28;20519;-63
2021/12/10 02:53:13;;;;;;;0.05;0.05;;;4.00;99.90;;;;;;4960499;28;20050;-63
2021/12/10 02:55:39;;;;;;;0.00;0.00;;;4.00;99.90;;;;;;4945267;28;20055;-63
2021/12/10 02:58:10;;;;;;;0.10;0.10;;;4.00;99.90;;;;;;4928866;28;20409;-64
2021/12/10 03:00:43;;;;;;;0.00;0.00;;;4.00;99.90;;;;;;4961710;28;20514;-63
2021/12/10 03:03:09;;;;;;;0.00;0.00;;;4.00;99.90;;;;;;4955728;28;20158;-64
2021/12/10 03:05:35;;;;;;;0.00;0.00;;;4.00;99.90;;;;;;4953445;28;20090;-64
2021/12/10 03:08:01;;;;;;;0.00;0.00;;;4.00;99.90;;;;;;4961769;28;20086;-64
2021/12/10 03:10:30;;;;;;;0.00;0.00;;;4.00;99.90;;;;;;4944128;28;20062;-63
2021/12/10 03:12:56;;;;;;;0.00;0.00;;;4.00;99.90;;;;;;4961767;28;20043;-63
2021/12/10 03:15:24;;;;;;;0.00;0.00;;;4.00;99.90;;;;;;4961938;28;20058;-63
2021/12/10 03:17:50;;;;;;;0.00;0.00;;;4.00;99.90;;;;;;4960828;28;20035;-63
2021/12/10 03:20:20;;;;;;;0.15;0.13;;;4.00;99.90;;;;;;4944648;28;20051;-63
2021/12/10 03:22:47;;;;;;;1.50;1.40;;;4.00;99.90;;;;;;4961166;28;20043;-64
2021/12/10 03:25:15;;;;;;;0.32;0.32;;;4.00;99.90;;;;;;4961386;28;20050;-63
2021/12/10 03:27:41;;;;;;;0.35;0.35;;;4.00;99.90;;;;;;4960902;28;20046;-65
2021/12/10 03:30:12;;;;;;;0.10;0.10;;;4.00;99.90;;;;;;4944493;28;20055;-64
2021/12/10 03:32:39;;;;;;;0.00;0.00;;;3.90;99.90;;;;;;4944780;28;20081;-63
2021/12/10 03:35:16;;;;;;;0.00;0.00;;;3.90;99.90;;;;;;4960309;28;20047;-65
2021/12/10 03:37:45;;;;;;;0.00;0.00;;;3.90;99.90;;;;;;4943769;28;20492;-64
2021/12/10 03:40:13;;;;;;;0.00;0.00;;;3.90;99.90;;;;;;4961439;28;20118;-63
2021/12/10 03:42:39;;;;;;;0.00;0.00;;;3.90;99.90;;;;;;4942945;28;20043;-63
2021/12/10 03:45:07;;;;;;;0.03;0.03;;;3.90;99.90;;;;;;4943747;28;20105;-64
2021/12/10 03:47:33;;;;;;;0.00;0.00;;;4.00;99.90;;;;;;4944450;28;20050;-65
2021/12/10 03:49:59;;;;;;;0.00;0.00;;;3.90;99.90;;;;;;4961573;28;20050;-63
2021/12/10 03:52:25;;;;;;;0.00;0.00;;;3.90;99.90;;;;;;4958208;28;20050;-63
2021/12/10 03:54:50;;;;;;;0.80;0.80;;;4.00;99.90;;;;;;4943882;28;20138;-63
2021/12/10 03:57:18;;;;;;;0.47;0.47;;;4.60;99.90;;;;;;4944199;28;20573;-63
2021/12/10 03:59:44;;;;;;;0.00;0.00;;;3.90;99.90;;;;;;4960086;28;20081;-63
2021/12/10 04:02:11;;;;;;;0.00;0.00;;;3.90;99.90;;;;;;4943074;28;20049;-64
2021/12/10 04:04:46;;;;;;;0.10;0.10;;;4.40;99.90;;;;;;4935233;28;20055;-63
2021/12/10 04:07:22;;;;;;;0.10;0.10;;;3.90;99.90;;;;;;4923510;29;20055;-63
2021/12/10 04:09:49;;;;;;;0.00;0.00;;;3.90;99.90;;;;;;4924269;29;20065;-63
2021/12/10 04:12:17;;;;;;;0.00;0.00;;;3.90;99.90;;;;;;4941059;28;20051;-64
2021/12/10 04:14:46;;;;;;;0.00;0.00;;;3.90;99.90;;;;;;4941073;29;20047;-63
2021/12/10 04:17:12;;;;;;;0.00;0.00;;;3.90;99.90;;;;;;4941322;29;20043;-63
2021/12/10 04:19:39;;;;;;;0.00;0.00;;;4.00;99.90;;;;;;4924645;29;20459;-63
2021/12/10 04:22:07;;;;;;;0.22;0.22;;;4.00;99.90;;;;;;4923347;29;20039;-64
2021/12/10 04:24:35;;;;;;;5.82;1.13;;;3.90;99.90;;;;;;4924079;29;20450;-65
2021/12/10 04:27:03;;;;;;;0.45;0.40;;;4.00;99.90;;;;;;4941768;29;20047;-64
2021/12/10 04:29:30;;;;;;;0.93;0.57;;;3.90;99.90;;;;;;4924883;29;20465;-63
2021/12/10 04:31:58;;;;;;;0.00;0.00;;;4.00;99.90;;;;;;4940493;29;20476;-63
2021/12/10 04:34:25;;;;;;;0.00;0.00;;;4.10;99.90;;;;;;4941164;29;20058;-63
2021/12/10 04:36:53;;;;;;;0.00;0.00;;;4.00;99.90;;;;;;4923173;29;20532;-63
2021/12/10 04:39:20;;;;;;;0.00;0.00;;;4.00;99.90;;;;;;4923614;29;20134;-63
2021/12/10 04:41:46;;;;;;;0.10;0.10;;;3.90;99.90;;;;;;4939024;29;20035;-63
2021/12/10 04:44:12;;;;;;;0.00;0.00;;;3.90;99.90;;;;;;4941360;29;20131;-63
2021/12/10 04:46:38;;;;;;;0.00;0.00;;;4.30;99.90;;;;;;4924161;29;20139;-63
2021/12/10 04:49:06;;;;;;;0.00;0.00;;;3.90;99.90;;;;;;4940470;29;20058;-63
2021/12/10 04:51:44;;;;;;;0.00;0.00;;;4.50;99.90;;;;;;4923648;29;20051;-65
2021/12/10 04:54:10;;;;;;;0.00;0.00;;;3.90;99.90;;;;;;4923064;29;20098;-63
2021/12/10 04:56:38;;;;;;;0.20;0.20;;;3.90;99.90;;;;;;4923480;29;20526;-63
2021/12/10 04:59:06;;;;;;;0.00;0.00;;;3.80;99.90;;;;;;4923649;29;20118;-64
2021/12/10 05:01:32;;;;;;;0.00;0.00;;;3.80;99.90;;;;;;4924248;29;20051;-63
2021/12/10 05:03:58;;;;;;;0.00;0.00;;;5.10;99.90;;;;;;4928893;28;20048;-63
2021/12/10 05:06:24;;;;;;;0.00;0.00;;;3.70;99.90;;;;;;4939266;29;20054;-63
2021/12/10 05:08:50;;;;;;;0.00;0.00;;;3.80;99.90;;;;;;4923245;29;20050;-63
2021/12/10 05:11:16;;;;;;;0.00;0.00;;;3.70;99.90;;;;;;4940304;29;20502;-63
2021/12/10 05:13:45;;;;;;;0.08;0.08;;;3.70;99.90;;;;;;4940513;29;20406;-64
2021/12/10 05:16:12;;;;;;;0.00;0.00;;;3.60;99.90;;;;;;4940191;29;20047;-63
2021/12/10 05:18:40;;;;;;;0.13;0.13;;;3.70;99.90;;;;;;4940558;29;20062;-63
2021/12/10 05:21:09;;;;;;;0.00;0.00;;;3.70;99.90;;;;;;4922119;29;20046;-63
2021/12/10 05:23:36;;;;;;;0.05;0.05;;;3.70;99.90;;;;;;4922348;29;20686;-63
2021/12/10 05:26:04;;;;;;;0.10;0.10;;;3.90;99.90;;;;;;4923851;29;20455;-63
2021/12/10 05:28:29;;;;;;;0.00;0.00;;;3.60;99.90;;;;;;4941297;29;20079;-63
2021/12/10 05:30:56;;;;;;;0.00;0.00;;;3.60;99.90;;;;;;4922368;29;20113;-63
2021/12/10 05:33:24;;;;;;;0.00;0.00;;;3.60;99.90;;;;;;4940064;29;20055;-63
2021/12/10 05:35:51;;;;;;;0.10;0.10;;;3.50;99.90;;;;;;4939714;29;20123;-63
2021/12/10 05:38:20;;;;;;;0.00;0.00;;;3.50;99.90;;;;;;4940387;29;20085;-63
2021/12/10 05:40:48;;;;;;;0.00;0.00;;;3.50;99.90;;;;;;4938932;29;20047;-63
2021/12/10 05:43:14;;;;;;;0.10;0.10;;;3.40;99.90;;;;;;4922626;29;20084;-63
2021/12/10 05:45:40;;;;;;;0.00;0.00;;;3.40;99.90;;;;;;4940307;29;20043;-63
2021/12/10 05:48:06;;;;;;;0.00;0.00;;;3.40;99.90;;;;;;4940320;29;20524;-64
2021/12/10 05:50:32;;;;;;;0.00;0.00;;;3.40;99.90;;;;;;4922952;29;20695;-63
2021/12/10 05:52:58;;;;;;;0.00;0.00;;;3.30;99.90;;;;;;4922780;29;20043;-63
2021/12/10 05:55:24;;;;;;;0.00;0.00;;;3.30;99.90;;;;;;4923058;29;20098;-63
2021/12/10 05:57:50;;;;;;;0.00;0.00;;;3.30;99.90;;;;;;4938709;29;20047;-63
2021/12/10 06:00:21;;;;;;;0.00;0.00;;;3.20;99.90;;;;;;4940076;29;20086;-63
2021/12/10 06:02:47;;;;;;;0.00;0.00;;;3.30;99.90;;;;;;4942372;28;20568;-63
2021/12/10 06:05:13;;;;;;;0.00;0.00;;;3.30;99.90;;;;;;4948728;28;20055;-63
2021/12/10 06:07:39;;;;;;;0.52;0.43;;;3.20;99.90;;;;;;4938449;29;20352;-63
2021/12/10 06:10:07;;;;;;;0.08;0.08;;;3.20;99.90;;;;;;4939696;29;20055;-64
2021/12/10 06:12:33;;;;;;;0.00;0.00;;;3.20;99.90;;;;;;4940073;29;20545;-64
2021/12/10 06:14:59;;;;;;;0.00;0.00;;;3.10;99.90;;;;;;4937805;29;20525;-63
2021/12/10 06:17:25;;;;;;;0.15;0.15;;;3.10;99.90;;;;;;4939889;29;20122;-63
2021/12/10 06:19:51;;;;;;;0.15;0.15;;;3.10;99.90;;;;;;4939919;29;20631;-63
2021/12/10 06:22:16;;;;;;;0.00;0.00;;;3.10;99.90;;;;;;4939109;29;20079;-63
2021/12/10 06:24:42;;;;;;;0.00;0.00;;;3.00;99.90;;;;;;4938866;29;20047;-64
2021/12/10 06:27:08;;;;;;;0.00;0.00;;;3.00;99.90;;;;;;4922790;29;20039;-63
2021/12/10 06:29:35;;;;;;;0.00;0.00;;;2.90;99.90;;;;;;4922922;29;20073;-63
2021/12/10 06:32:02;;;;;;;0.00;0.00;;;2.90;99.90;;;;;;4939718;29;20126;-63
2021/12/10 06:34:27;;;;;;;0.00;0.00;;;2.80;99.90;;;;;;4939263;28;20371;-64
2021/12/10 06:36:53;;;;;;;0.00;0.00;;;2.80;99.90;;;;;;4942359;29;20051;-63
2021/12/10 06:39:20;;;;;;;0.00;0.00;;;2.80;99.90;;;;;;4942856;29;20058;-63
2021/12/10 06:41:53;;;;;;;0.00;0.00;;;2.70;99.90;;;;;;4942989;29;20043;-64
2021/12/10 06:44:20;;;;;;;0.05;0.05;;;3.10;99.90;;;;;;4925830;29;20043;-63
2021/12/10 06:46:47;;;;;;;0.00;0.00;;;2.70;99.90;;;;;;4926006;29;20122;-63
2021/12/10 06:49:13;;;;;;;0.00;0.00;;;2.60;99.90;;;;;;4925722;29;20050;-64
2021/12/10 06:51:39;;;;;;;0.00;0.00;;;2.60;99.90;;;;;;4941299;29;20864;-63
2021/12/10 06:54:05;;;;;;;0.00;0.00;;;2.60;99.90;;;;;;4942675;29;20083;-66
2021/12/10 06:56:33;;;;;;;0.00;0.00;;;2.50;99.90;;;;;;4926431;29;20089;-66
2021/12/10 06:58:59;;;;;;;0.00;0.00;;;2.50;99.90;;;;;;4925305;29;20067;-63
2021/12/10 07:01:30;;;;;;;1.15;0.45;;;1.40;99.90;;;;;;4925165;29;20055;-65
2021/12/10 07:03:58;;;;;;;0.00;0.00;;;2.40;99.90;;;;;;4949866;28;20106;-63
2021/12/10 07:06:26;;;;;;;0.00;0.00;;;2.40;99.90;;;;;;4943991;28;20058;-63
2021/12/10 07:08:53;;;;;;;0.00;0.00;;;2.20;99.90;;;;;;4924862;29;20244;-66
2021/12/10 07:11:21;;;;;;;0.00;0.00;;;2.30;99.90;;;;;;4925199;29;20105;-65
2021/12/10 07:13:50;;;;;;;0.00;0.00;;;2.60;99.90;;;;;;4925390;29;20053;-63
2021/12/10 07:16:18;;;;;;;0.00;0.00;;;2.30;99.90;;;;;;4941746;29;20050;-63
2021/12/10 07:18:44;;;;;;;0.00;0.00;;;2.30;99.90;;;;;;4942809;29;20043;-63
2021/12/10 07:21:11;;;;;;;0.00;0.00;;;2.20;99.90;;;;;;4941623;29;20058;-64
2021/12/10 07:23:37;;;;;;;0.00;0.00;;;2.20;99.90;;;;;;4925382;29;20399;-64
2021/12/10 07:26:05;;;;;;;0.00;0.00;;;2.20;99.90;;;;;;4941512;29;20126;-65
2021/12/10 07:28:33;;;;;;;0.00;0.00;;;2.20;99.90;;;;;;4943194;29;20043;-64
2021/12/10 07:31:00;;;;;;;0.00;0.00;;;2.20;99.90;;;;;;4942674;29;20054;-64
2021/12/10 07:33:26;;;;;;;0.00;0.00;;;2.20;99.90;;;;;;4923699;29;20043;-64
2021/12/10 07:35:51;;;;;;;0.17;0.17;;;2.10;99.90;;;;;;4924337;29;20061;-64
2021/12/10 07:38:17;;;;;;;0.00;0.00;;;2.20;99.90;;;;;;4942513;29;20051;-64
2021/12/10 07:40:44;;;;;;;0.00;0.00;;;2.20;99.90;;;;;;4941888;29;20554;-64
2021/12/10 07:43:10;;;;;;;0.00;0.00;;;2.20;99.90;;;;;;4941557;29;20054;-64
2021/12/10 07:45:37;;;;;;;0.00;0.00;;;2.20;99.90;;;;;;4925312;29;20047;-64
2021/12/10 07:48:08;;;;;;;0.00;0.00;;;2.20;99.90;;;;;;4941745;28;20043;-65
2021/12/10 07:50:37;;;;;;;0.00;0.00;;;2.70;99.90;;;;;;4939014;29;20047;-65
2021/12/10 07:53:05;;;;;;;0.00;0.00;;;2.20;99.90;;;;;;4941391;29;20465;-65
2021/12/10 07:55:34;;;;;;;0.00;0.00;;;2.20;99.90;;;;;;4942349;29;20097;-64
2021/12/10 07:58:01;;;;;;;0.00;0.00;;;2.20;99.90;;;;;;4924975;29;20106;-64
2021/12/10 08:00:29;;;;;;;0.00;0.00;;;2.30;99.90;;;;;;4924002;29;20051;-63
2021/12/10 08:02:56;;;;;;;0.00;0.00;;;2.30;99.90;;;;;;4925771;28;20061;-64
2021/12/10 08:05:23;;;;;;;0.00;0.00;;;2.30;99.90;;;;;;4949388;28;20082;-64
2021/12/10 08:07:50;;;;;;;0.00;0.00;;;2.30;99.90;;;;;;4923732;29;20062;-64
2021/12/10 08:10:16;;;;;;;0.00;0.00;;;2.30;99.90;;;;;;4924149;29;20058;-64
2021/12/10 08:12:42;;;;;;;0.00;0.00;;;2.50;99.90;;;;;;4923898;29;20043;-64
2021/12/10 08:15:09;;;;;;;0.00;0.00;;;2.30;99.90;;;;;;4924339;29;20057;-64
2021/12/10 08:17:35;;;;;;;0.00;0.00;;;2.30;99.90;;;;;;4907657;29;20052;-64
2021/12/10 08:20:03;;;;;;;0.00;0.00;;;2.40;99.90;;;;;;4941415;29;20063;-63
2021/12/10 08:22:29;;;;;;;0.00;0.00;;;2.40;99.90;;;;;;4940878;29;20047;-64
2021/12/10 08:24:55;;;;;;;0.00;0.00;;;2.60;99.90;;;;;;4940572;29;20051;-64
2021/12/10 08:27:20;;;;;;;0.00;0.00;;;2.40;99.90;;;;;;4941160;29;20043;-64
2021/12/10 08:29:48;;;;;;;0.00;0.00;;;2.50;99.90;;;;;;4941186;29;20044;-64
2021/12/10 08:32:19;;;;;;;0.00;0.00;;;2.50;99.90;;;;;;4941250;29;20134;-64
2021/12/10 08:34:45;;;;;;;0.00;0.00;;;2.50;99.90;;;;;;4940354;29;20240;-64
2021/12/10 08:37:11;;;;;;;0.00;0.00;;;2.50;99.90;;;;;;4923117;29;20047;-65
2021/12/10 08:39:38;;;;;;;0.00;0.00;;;2.50;99.90;;;;;;4940986;29;20486;-65
2021/12/10 08:42:04;;;;;;;0.00;0.00;;;2.60;99.90;;;;;;4940743;29;20039;-65
2021/12/10 08:44:30;;;;;;;0.00;0.00;;;2.60;99.90;;;;;;4940765;29;20043;-64
2021/12/10 08:46:57;;;;;;;0.00;0.00;;;2.60;99.90;;;;;;4940738;29;20102;-65
2021/12/10 08:49:22;;;;;;;0.00;0.00;;;2.50;99.90;;;;;;4941027;29;20122;-66
2021/12/10 08:51:53;;;;;;;0.00;0.00;;;3.10;99.90;;;;;;4938012;29;20047;-65
2021/12/10 08:54:19;;;;;;;0.00;0.00;;;2.50;99.90;;;;;;4923174;29;20054;-65
2021/12/10 08:56:47;;;;;;;0.00;0.00;;;2.50;99.90;;;;;;4922996;29;20102;-66
2021/12/10 08:59:14;;;;;;;0.00;0.00;;;2.60;99.90;;;;;;4939872;28;20039;-66
2021/12/10 09:01:45;;;;;;;0.00;0.00;;;2.60;99.90;;;;;;4923073;29;20388;-66
2021/12/10 09:04:12;;;;;;;0.00;0.00;;;2.70;99.90;;;;;;4950978;28;20437;-65
2021/12/10 09:06:42;;;;;;;0.00;0.00;;;2.80;99.90;;;;;;4939792;29;20051;-65
2021/12/10 09:09:10;;;;;;;0.00;0.00;;;2.80;99.90;;;;;;4939392;29;20058;-65
2021/12/10 09:11:40;;;;;;;0.00;0.00;;;3.30;99.90;;;;;;4923388;29;20063;-65
2021/12/10 09:14:07;;;;;;;0.00;0.00;;;3.00;99.90;;;;;;4923353;29;20174;-65
2021/12/10 09:16:36;;;;;;;0.00;0.00;;;3.00;99.90;;;;;;4940038;29;20058;-65
2021/12/10 09:19:04;;;;;;;0.00;0.00;;;3.20;99.90;;;;;;4940589;29;20101;-64
2021/12/10 09:21:33;;;;;;;0.00;0.00;;;3.20;99.90;;;;;;4922555;29;20051;-64
2021/12/10 09:24:04;;;;;;;0.00;0.00;;;3.30;99.90;;;;;;4923272;29;20055;-64
2021/12/10 09:26:32;;;;;;;0.00;0.00;;;3.40;99.90;;;;;;4923590;29;20108;-64
2021/12/10 09:29:00;;;;;;;0.00;0.00;;;4.20;99.90;;;;;;4923495;29;20120;-64
2021/12/10 09:31:25;;;;;;;0.00;0.00;;;3.70;99.90;;;;;;4923220;29;20047;-65
2021/12/10 09:33:54;;;;;;;0.00;0.00;;;4.30;99.90;;;;;;4938907;29;20055;-64
2021/12/10 09:36:20;;;;;;;0.00;0.00;;;5.00;99.90;;;;;;4939250;29;20058;-64
2021/12/10 09:38:46;;;;;;;0.00;0.00;;;5.70;99.90;;;;;;4940731;29;20044;-64
2021/12/10 09:41:12;;;;;;;0.00;0.00;;;6.40;99.90;;;;;;4922283;29;20054;-64
2021/12/10 09:43:39;;;;;;;0.00;0.00;;;7.00;99.90;;;;;;4907197;29;20059;-64
2021/12/10 09:46:06;;;;;;;0.00;0.00;;;8.00;99.90;;;;;;4940083;29;20445;-65
2021/12/10 09:48:33;;;;;;;0.00;0.00;;;7.40;99.90;;;;;;4923619;29;20047;-64
2021/12/10 09:51:18;;;;;;;0.20;0.20;;;7.70;99.90;;;;;;4921486;29;20099;-64
2021/12/10 09:53:48;;;;;;;0.08;0.08;;;7.60;99.90;;;;;;4940198;29;20136;-64
2021/12/10 09:56:17;;;;;;;0.00;0.00;;;9.60;99.90;;;;;;4939450;29;20050;-64
2021/12/10 09:58:43;;;;;;;0.00;0.00;;;8.50;99.90;;;;;;4940215;29;20114;-65
2021/12/10 10:01:12;;;;;;;0.95;0.77;;;9.50;99.90;;;;;;4940269;28;20462;-65
2021/12/10 10:03:41;;;;;;;0.00;0.00;;;8.70;99.90;;;;;;4935679;28;20293;-64
2021/12/10 10:06:08;;;;;;;0.08;0.08;;;9.50;99.90;;;;;;4942269;28;20661;-65
2021/12/10 10:08:36;;;;;;;0.00;0.00;;;7.70;99.90;;;;;;4940172;29;20043;-65
2021/12/10 10:11:23;;;;;;;0.00;0.00;;;7.70;99.90;;;;;;4924852;29;20546;-64
2021/12/10 10:13:51;;;;;;;0.00;0.00;;;7.20;99.90;;;;;;4926617;29;20046;-64
2021/12/10 10:16:20;;;;;;;0.00;0.00;;;6.80;99.90;;;;;;4943534;29;20438;-64
2021/12/10 10:18:47;;;;;;;0.00;0.00;;;6.50;99.90;;;;;;4925937;29;20058;-64
2021/12/10 10:21:17;;;;;;;0.00;0.00;;;8.40;99.90;;;;;;4947871;28;20055;-63
2021/12/10 10:23:43;;;;;;;0.00;0.00;;;7.00;99.90;;;;;;4959372;28;20133;-63
2021/12/10 10:26:14;;;;;;;0.68;0.63;;;7.50;99.90;;;;;;4978571;28;20102;-63
2021/12/10 10:28:39;;;;;;;0.00;0.00;;;7.20;99.90;;;;;;4961437;28;20097;-63
2021/12/10 10:31:16;;;;;;;1.00;0.95;;;7.30;99.90;;;;;;4961880;28;20468;-64
2021/12/10 10:33:42;;;;;;;0.00;0.00;;;7.40;99.90;;;;;;4944664;28;20038;-65
2021/12/10 10:36:18;;;;;;;0.00;0.00;;;7.80;99.90;;;;;;4942495;28;20073;-63
2021/12/10 10:38:55;;;;;;;0.00;0.00;;;9.10;99.90;;;;;;4967909;28;20069;-63
2021/12/10 10:41:23;;;;;;;0.00;0.00;;;8.00;99.90;;;;;;4963491;28;20064;-64
2021/12/10 10:43:49;;;;;;;0.00;0.00;;;8.00;99.90;;;;;;4963500;28;20797;-63
2021/12/10 10:46:15;;;;;;;0.10;0.10;;;8.00;99.90;;;;;;4981188;28;20053;-63
2021/12/10 10:48:42;;;;;;;0.00;0.00;;;7.80;99.90;;;;;;4964197;28;20046;-64
2021/12/10 10:51:17;;;;;;;0.00;0.00;;;7.90;99.90;;;;;;4979806;28;20049;-63
2021/12/10 10:53:49;;;;;;;0.00;0.00;;;8.10;99.90;;;;;;4963666;28;20196;-63
2021/12/10 10:56:19;;;;;;;0.10;0.10;;;9.10;99.90;;;;;;4963424;28;20520;-63
2021/12/10 10:58:50;;;;;;;0.00;0.00;;;9.10;99.90;;;;;;4980076;28;20073;-63
2021/12/10 11:01:24;;;;;;;0.00;0.00;;;10.60;99.90;;;;;;4981293;28;20042;-64
2021/12/10 11:04:02;;;;;;;0.00;0.00;;;9.90;99.90;;;;;;4943450;28;20059;-63
2021/12/10 11:06:37;;;;;;;0.00;0.00;;;10.40;99.90;;;;;;4925000;29;20109;-63
2021/12/10 11:09:09;;;;;;;0.00;0.00;;;10.70;99.90;;;;;;4942093;29;20040;-64
2021/12/10 11:11:41;;;;;;;0.00;0.00;;;10.70;99.90;;;;;;4925328;29;20050;-63
2021/12/10 11:14:24;;;;;;;0.00;0.00;;;10.20;99.90;;;;;;4925431;29;20055;-63
2021/12/10 11:16:54;;;;;;;0.10;0.10;;;10.40;99.90;;;;;;4961545;28;20054;-63
2021/12/10 11:19:27;;;;;;;0.20;0.20;;;10.60;99.90;;;;;;4962752;28;20085;-62
2021/12/10 11:22:08;;;;;;;0.00;0.00;;;10.10;99.90;;;;;;4962635;28;20121;-65
2021/12/10 11:24:43;;;;;;;0.00;0.00;;;10.90;99.90;;;;;;4962819;28;20054;-63
2021/12/10 11:27:13;;;;;;;0.00;0.00;;;10.50;99.90;;;;;;4959220;28;20066;-64
2021/12/10 11:30:11;;;;;;;0.00;0.00;;;10.30;99.90;;;;;;4944131;28;20061;-64
2021/12/10 11:32:44;;;;;;;0.00;0.00;;;10.00;99.90;;;;;;4931254;28;20133;-64
2021/12/10 11:35:24;;;;;;;0.00;0.00;;;10.50;99.90;;;;;;4942146;28;20051;-63
2021/12/10 11:38:01;;;;;;;0.00;0.00;;;10.10;99.90;;;;;;4943435;28;20127;-63
2021/12/10 11:40:40;;;;;;;0.10;0.10;;;9.60;99.90;;;;;;4961338;28;20401;-63
2021/12/10 11:48:41;;;;;;;0.00;0.00;;;10.20;99.90;;;;;;4943109;28;20085;-64
2021/12/10 11:51:19;;;;;;;0.00;0.00;;;11.10;99.90;;;;;;4938923;28;20046;-64
2021/12/10 11:53:51;;;;;;;0.15;0.15;;;9.10;99.90;;;;;;4941526;28;20433;-63
2021/12/10 11:56:22;;;;;;;0.08;0.08;;;9.70;99.90;;;;;;4942925;28;20055;-65
2021/12/10 11:59:03;;;;;;;0.00;0.00;;;9.20;99.90;;;;;;4943144;28;20058;-66
2021/12/10 12:01:29;;;;;;;0.00;0.00;;;9.60;99.90;;;;;;4942850;28;20143;-65
2021/12/10 12:03:54;;;;;;;0.00;0.00;;;9.50;99.90;;;;;;4956070;28;20067;-63
2021/12/10 12:06:20;;;;;;;0.00;0.00;;;9.40;99.90;;;;;;4959895;28;20449;-63
2021/12/10 12:08:46;;;;;;;0.00;0.00;;;9.00;99.90;;;;;;4959635;28;20101;-62
2021/12/10 12:11:12;;;;;;;0.00;0.00;;;8.70;99.90;;;;;;4959848;28;20717;-62
2021/12/10 12:13:50;;;;;;;0.00;0.00;;;8.30;99.90;;;;;;4943438;28;20050;-65
2021/12/10 12:16:17;;;;;;;0.00;0.00;;;8.20;99.90;;;;;;4942740;28;20085;-63
2021/12/10 12:18:54;;;;;;;0.00;0.00;;;8.40;99.90;;;;;;4961059;28;20050;-64
2021/12/10 12:27:06;;;;;;;0.00;0.00;;;9.20;99.90;;;;;;4978475;28;20492;-63
2021/12/10 12:29:37;;;;;;;0.00;0.00;;;8.00;99.90;;;;;;4958101;28;20046;-63
2021/12/10 12:32:13;;;;;;;0.00;0.00;;;8.30;99.90;;;;;;4939756;28;20063;-65
2021/12/10 12:34:39;;;;;;;0.00;0.00;;;8.20;99.90;;;;;;4938837;29;20089;-64
2021/12/10 12:37:07;;;;;;;0.00;0.00;;;8.20;99.90;;;;;;4939118;29;20062;-65
2021/12/10 12:39:45;;;;;;;0.00;0.00;;;8.00;99.90;;;;;;4940926;29;20070;-65
2021/12/10 12:42:22;;;;;;;0.00;0.00;;;8.00;99.90;;;;;;4923298;29;20043;-64
2021/12/10 12:44:52;;;;;;;0.00;0.00;;;8.00;99.90;;;;;;4940016;29;20047;-64
2021/12/10 12:47:26;;;;;;;0.00;0.00;;;8.00;99.90;;;;;;4939481;29;20417;-64
2021/12/10 12:50:13;;;;;;;0.00;0.00;;;8.10;99.90;;;;;;4936534;28;20561;-64
2021/12/10 12:52:45;;;;;;;0.00;0.00;;;8.20;99.90;;;;;;4943495;28;20063;-64
2021/12/10 12:55:21;;;;;;;0.00;0.00;;;7.90;99.90;;;;;;4935920;28;20059;-64
2021/12/10 12:57:53;;;;;;;0.00;0.00;;;7.80;99.90;;;;;;4943929;28;20038;-64
2021/12/10 13:00:21;;;;;;;0.00;0.00;;;7.70;99.90;;;;;;4946513;28;20439;-64
2021/12/10 13:02:53;;;;;;;0.00;0.00;;;7.70;99.90;;;;;;4942540;28;20047;-64
2021/12/10 13:05:29;;;;;;;0.00;0.00;;;7.60;99.90;;;;;;4954178;28;20051;-64
2021/12/10 13:08:08;;;;;;;0.17;0.10;;;7.50;99.90;;;;;;4948680;28;20078;-63
2021/12/10 13:10:37;;;;;;;0.00;0.00;;;7.90;99.90;;;;;;4939688;29;20598;-65
2021/12/10 13:13:15;;;;;;;0.00;0.00;;;7.10;99.90;;;;;;4938814;29;20087;-67
2021/12/10 13:15:49;;;;;;;0.00;0.00;;;7.00;99.90;;;;;;4936984;28;20055;-66
2021/12/10 13:18:15;;;;;;;0.00;0.00;;;6.70;99.90;;;;;;4942278;28;20089;-64
2021/12/10 13:20:46;;;;;;;0.00;0.00;;;6.60;99.90;;;;;;4958597;28;20509;-65
2021/12/10 13:23:16;;;;;;;0.00;0.00;;;6.50;99.90;;;;;;4941665;28;20463;-64
2021/12/10 13:25:43;;;;;;;0.00;0.00;;;7.60;99.90;;;;;;4942122;28;20417;-65